sensor_id;sensor_type;location;lat;lon;timestamp;P1;durP1;ratioP1;P2;durP2;ratioP2
44722;SDS011;30451;48.638;10.624;2022-12-07T00:01:20;2.92;;;1.40;;
44722;SDS011;30451;48.638;10.624;2022-12-07T00:03:51;3.58;;;1.27;;
44722;SDS011;30451;48.638;10.624;2022-12-07T00:06:19;2.40;;;1.50;;
44722;SDS011;30451;48.638;10.624;2022-12-07T00:08:45;2.67;;;1.27;;
44722;SDS011;30451;48.638;10.624;2022-12-07T00:11:15;3.25;;;1.73;;
44722;SDS011;30451;48.638;10.624;2022-12-07T00:13:43;2.45;;;1.23;;
44722;SDS011;30451;48.638;10.624;2022-12-07T00:16:11;2.45;;;1.27;;
44722;SDS011;30451;48.638;10.624;2022-12-07T00:18:41;2.53;;;1.35;;
44722;SDS011;30451;48.638;10.624;2022-12-07T00:23:38;2.22;;;1.25;;
44722;SDS011;30451;48.638;10.624;2022-12-07T00:26:08;2.60;;;1.45;;
44722;SDS011;30451;48.638;10.624;2022-12-07T00:28:39;2.10;;;1.25;;
44722;SDS011;30451;48.638;10.624;2022-12-07T00:31:07;2.20;;;1.30;;
44722;SDS011;30451;48.638;10.624;2022-12-07T00:33:35;2.00;;;1.15;;
44722;SDS011;30451;48.638;10.624;2022-12-07T00:36:02;2.42;;;1.40;;
44722;SDS011;30451;48.638;10.624;2022-12-07T00:38:30;1.85;;;1.10;;
44722;SDS011;30451;48.638;10.624;2022-12-07T00:40:57;2.83;;;1.30;;
44722;SDS011;30451;48.638;10.624;2022-12-07T00:43:24;1.95;;;1.38;;
44722;SDS011;30451;48.638;10.624;2022-12-07T00:45:51;1.90;;;1.10;;
44722;SDS011;30451;48.638;10.624;2022-12-07T00:48:17;2.42;;;1.30;;
44722;SDS011;30451;48.638;10.624;2022-12-07T00:50:42;2.03;;;1.30;;
44722;SDS011;30451;48.638;10.624;2022-12-07T00:53:08;2.35;;;1.20;;
44722;SDS011;30451;48.638;10.624;2022-12-07T00:55:36;1.77;;;1.15;;
44722;SDS011;30451;48.638;10.624;2022-12-07T00:58:02;1.27;;;1.00;;
44722;SDS011;30451;48.638;10.624;2022-12-07T01:00:31;1.50;;;1.00;;
44722;SDS011;30451;48.638;10.624;2022-12-07T01:02:58;2.45;;;1.30;;
44722;SDS011;30451;48.638;10.624;2022-12-07T01:05:24;2.15;;;1.20;;
44722;SDS011;30451;48.638;10.624;2022-12-07T01:07:52;1.77;;;1.23;;
44722;SDS011;30451;48.638;10.624;2022-12-07T01:10:17;2.00;;;1.17;;
44722;SDS011;30451;48.638;10.624;2022-12-07T01:12:43;1.98;;;1.30;;
44722;SDS011;30451;48.638;10.624;2022-12-07T01:15:09;2.15;;;1.23;;
44722;SDS011;30451;48.638;10.624;2022-12-07T01:17:34;2.00;;;1.15;;
44722;SDS011;30451;48.638;10.624;2022-12-07T01:20:00;2.33;;;1.10;;
44722;SDS011;30451;48.638;10.624;2022-12-07T01:22:27;1.70;;;1.15;;
44722;SDS011;30451;48.638;10.624;2022-12-07T01:24:52;1.98;;;1.20;;
44722;SDS011;30451;48.638;10.624;2022-12-07T01:27:18;1.45;;;1.05;;
44722;SDS011;30451;48.638;10.624;2022-12-07T01:29:44;2.38;;;1.10;;
44722;SDS011;30451;48.638;10.624;2022-12-07T01:32:10;1.80;;;1.10;;
44722;SDS011;30451;48.638;10.624;2022-12-07T01:34:35;2.20;;;1.38;;
44722;SDS011;30451;48.638;10.624;2022-12-07T01:37:01;1.88;;;1.20;;
44722;SDS011;30451;48.638;10.624;2022-12-07T01:39:27;2.17;;;1.30;;
44722;SDS011;30451;48.638;10.624;2022-12-07T01:41:53;1.83;;;1.10;;
44722;SDS011;30451;48.638;10.624;2022-12-07T01:44:20;1.95;;;1.10;;
44722;SDS011;30451;48.638;10.624;2022-12-07T01:46:51;1.75;;;1.00;;
44722;SDS011;30451;48.638;10.624;2022-12-07T01:49:43;1.95;;;1.20;;
44722;SDS011;30451;48.638;10.624;2022-12-07T01:52:23;2.83;;;1.00;;
44722;SDS011;30451;48.638;10.624;2022-12-07T01:54:59;2.25;;;1.20;;
44722;SDS011;30451;48.638;10.624;2022-12-07T01:57:31;1.80;;;1.15;;
44722;SDS011;30451;48.638;10.624;2022-12-07T01:59:59;1.83;;;1.00;;
44722;SDS011;30451;48.638;10.624;2022-12-07T02:02:27;1.73;;;1.10;;
44722;SDS011;30451;48.638;10.624;2022-12-07T02:04:59;1.75;;;1.20;;
44722;SDS011;30451;48.638;10.624;2022-12-07T02:07:27;1.77;;;1.10;;
44722;SDS011;30451;48.638;10.624;2022-12-07T02:09:53;1.88;;;1.00;;
44722;SDS011;30451;48.638;10.624;2022-12-07T02:12:19;2.33;;;1.10;;
44722;SDS011;30451;48.638;10.624;2022-12-07T02:14:47;1.63;;;1.20;;
44722;SDS011;30451;48.638;10.624;2022-12-07T02:20:11;1.17;;;0.90;;
44722;SDS011;30451;48.638;10.624;2022-12-07T02:30:38;1.48;;;0.98;;
44722;SDS011;30451;48.638;10.624;2022-12-07T02:33:16;1.70;;;1.20;;
44722;SDS011;30451;48.638;10.624;2022-12-07T02:35:58;1.10;;;0.85;;
44722;SDS011;30451;48.638;10.624;2022-12-07T02:41:15;1.50;;;1.10;;
44722;SDS011;30451;48.638;10.624;2022-12-07T02:43:57;1.70;;;1.00;;
44722;SDS011;30451;48.638;10.624;2022-12-07T02:46:30;1.33;;;1.00;;
44722;SDS011;30451;48.638;10.624;2022-12-07T02:49:07;1.88;;;1.20;;
44722;SDS011;30451;48.638;10.624;2022-12-07T02:51:38;1.67;;;1.00;;
44722;SDS011;30451;48.638;10.624;2022-12-07T02:54:12;1.13;;;0.90;;
44722;SDS011;30451;48.638;10.624;2022-12-07T03:13:03;1.50;;;1.10;;
44722;SDS011;30451;48.638;10.624;2022-12-07T03:18:20;2.22;;;1.00;;
44722;SDS011;30451;48.638;10.624;2022-12-07T03:23:16;1.38;;;1.10;;
44722;SDS011;30451;48.638;10.624;2022-12-07T03:25:45;1.30;;;1.00;;
44722;SDS011;30451;48.638;10.624;2022-12-07T03:28:15;1.45;;;1.00;;
44722;SDS011;30451;48.638;10.624;2022-12-07T03:30:52;1.83;;;1.00;;
44722;SDS011;30451;48.638;10.624;2022-12-07T03:33:40;1.73;;;1.10;;
44722;SDS011;30451;48.638;10.624;2022-12-07T03:36:30;1.70;;;1.10;;
44722;SDS011;30451;48.638;10.624;2022-12-07T03:39:12;1.65;;;1.10;;
44722;SDS011;30451;48.638;10.624;2022-12-07T03:41:39;1.52;;;1.10;;
44722;SDS011;30451;48.638;10.624;2022-12-07T03:44:04;1.55;;;1.02;;
44722;SDS011;30451;48.638;10.624;2022-12-07T03:46:46;1.80;;;1.10;;
44722;SDS011;30451;48.638;10.624;2022-12-07T03:49:44;1.70;;;1.10;;
44722;SDS011;30451;48.638;10.624;2022-12-07T03:55:16;1.73;;;1.13;;
44722;SDS011;30451;48.638;10.624;2022-12-07T03:57:44;1.55;;;1.00;;
44722;SDS011;30451;48.638;10.624;2022-12-07T04:00:16;1.83;;;1.10;;
44722;SDS011;30451;48.638;10.624;2022-12-07T04:05:09;1.48;;;1.00;;
44722;SDS011;30451;48.638;10.624;2022-12-07T04:07:35;1.35;;;1.08;;
44722;SDS011;30451;48.638;10.624;2022-12-07T04:10:01;1.38;;;0.95;;
44722;SDS011;30451;48.638;10.624;2022-12-07T04:12:27;1.40;;;1.13;;
44722;SDS011;30451;48.638;10.624;2022-12-07T04:14:52;1.50;;;1.10;;
44722;SDS011;30451;48.638;10.624;2022-12-07T04:17:18;1.48;;;1.02;;
44722;SDS011;30451;48.638;10.624;2022-12-07T04:19:44;2.15;;;1.20;;
44722;SDS011;30451;48.638;10.624;2022-12-07T04:22:09;1.63;;;1.10;;
44722;SDS011;30451;48.638;10.624;2022-12-07T04:24:35;1.42;;;0.88;;
44722;SDS011;30451;48.638;10.624;2022-12-07T04:27:02;1.60;;;1.23;;
44722;SDS011;30451;48.638;10.624;2022-12-07T04:29:28;1.23;;;0.95;;
44722;SDS011;30451;48.638;10.624;2022-12-07T04:31:53;1.33;;;0.98;;
44722;SDS011;30451;48.638;10.624;2022-12-07T04:34:19;1.80;;;1.00;;
44722;SDS011;30451;48.638;10.624;2022-12-07T04:36:46;1.10;;;0.80;;
44722;SDS011;30451;48.638;10.624;2022-12-07T04:39:28;1.80;;;1.17;;
44722;SDS011;30451;48.638;10.624;2022-12-07T04:41:55;1.25;;;0.95;;
44722;SDS011;30451;48.638;10.624;2022-12-07T04:44:21;1.23;;;0.90;;
44722;SDS011;30451;48.638;10.624;2022-12-07T04:46:48;1.33;;;0.90;;
44722;SDS011;30451;48.638;10.624;2022-12-07T04:49:14;1.35;;;0.90;;
44722;SDS011;30451;48.638;10.624;2022-12-07T04:51:40;1.60;;;0.90;;
44722;SDS011;30451;48.638;10.624;2022-12-07T04:54:06;1.30;;;0.90;;
44722;SDS011;30451;48.638;10.624;2022-12-07T04:56:32;1.20;;;0.80;;
44722;SDS011;30451;48.638;10.624;2022-12-07T04:59:00;1.60;;;0.95;;
44722;SDS011;30451;48.638;10.624;2022-12-07T05:01:26;0.88;;;0.80;;
44722;SDS011;30451;48.638;10.624;2022-12-07T05:03:52;1.50;;;0.93;;
44722;SDS011;30451;48.638;10.624;2022-12-07T05:06:18;1.00;;;0.80;;
44722;SDS011;30451;48.638;10.624;2022-12-07T05:08:44;1.48;;;0.90;;
44722;SDS011;30451;48.638;10.624;2022-12-07T05:11:10;1.63;;;1.00;;
44722;SDS011;30451;48.638;10.624;2022-12-07T05:13:59;1.00;;;0.80;;
44722;SDS011;30451;48.638;10.624;2022-12-07T05:16:25;0.80;;;0.70;;
44722;SDS011;30451;48.638;10.624;2022-12-07T05:18:50;1.00;;;0.80;;
44722;SDS011;30451;48.638;10.624;2022-12-07T05:21:16;1.10;;;0.80;;
44722;SDS011;30451;48.638;10.624;2022-12-07T05:23:41;1.52;;;0.80;;
44722;SDS011;30451;48.638;10.624;2022-12-07T05:26:07;0.73;;;0.70;;
44722;SDS011;30451;48.638;10.624;2022-12-07T05:28:32;1.30;;;0.90;;
44722;SDS011;30451;48.638;10.624;2022-12-07T05:30:58;1.27;;;0.80;;
44722;SDS011;30451;48.638;10.624;2022-12-07T05:33:24;1.00;;;0.90;;
44722;SDS011;30451;48.638;10.624;2022-12-07T05:35:49;1.98;;;1.08;;
44722;SDS011;30451;48.638;10.624;2022-12-07T05:38:15;0.90;;;0.80;;
44722;SDS011;30451;48.638;10.624;2022-12-07T05:40:41;1.13;;;0.85;;
44722;SDS011;30451;48.638;10.624;2022-12-07T05:43:06;1.25;;;0.77;;
44722;SDS011;30451;48.638;10.624;2022-12-07T05:45:32;0.75;;;0.70;;
44722;SDS011;30451;48.638;10.624;2022-12-07T05:47:57;1.30;;;0.90;;
44722;SDS011;30451;48.638;10.624;2022-12-07T05:50:23;0.98;;;0.88;;
44722;SDS011;30451;48.638;10.624;2022-12-07T05:52:49;1.48;;;1.00;;
44722;SDS011;30451;48.638;10.624;2022-12-07T05:55:14;1.33;;;0.88;;
44722;SDS011;30451;48.638;10.624;2022-12-07T05:57:40;1.67;;;0.90;;
44722;SDS011;30451;48.638;10.624;2022-12-07T06:00:26;1.70;;;0.90;;
44722;SDS011;30451;48.638;10.624;2022-12-07T06:02:51;1.48;;;0.90;;
44722;SDS011;30451;48.638;10.624;2022-12-07T06:05:17;1.20;;;0.90;;
44722;SDS011;30451;48.638;10.624;2022-12-07T06:07:42;1.27;;;0.90;;
44722;SDS011;30451;48.638;10.624;2022-12-07T06:10:08;1.33;;;0.93;;
44722;SDS011;30451;48.638;10.624;2022-12-07T06:12:34;1.13;;;0.90;;
44722;SDS011;30451;48.638;10.624;2022-12-07T06:15:00;1.48;;;0.93;;
44722;SDS011;30451;48.638;10.624;2022-12-07T06:17:25;1.73;;;0.95;;
44722;SDS011;30451;48.638;10.624;2022-12-07T06:19:51;1.65;;;1.05;;
44722;SDS011;30451;48.638;10.624;2022-12-07T06:22:17;2.22;;;1.05;;
44722;SDS011;30451;48.638;10.624;2022-12-07T06:24:43;1.42;;;0.90;;
44722;SDS011;30451;48.638;10.624;2022-12-07T06:27:09;1.80;;;0.95;;
44722;SDS011;30451;48.638;10.624;2022-12-07T06:29:35;1.90;;;0.90;;
44722;SDS011;30451;48.638;10.624;2022-12-07T06:32:01;1.70;;;1.08;;
44722;SDS011;30451;48.638;10.624;2022-12-07T06:34:27;2.08;;;1.00;;
44722;SDS011;30451;48.638;10.624;2022-12-07T06:36:53;1.70;;;1.00;;
44722;SDS011;30451;48.638;10.624;2022-12-07T06:39:26;2.30;;;1.00;;
44722;SDS011;30451;48.638;10.624;2022-12-07T06:41:52;1.80;;;1.00;;
44722;SDS011;30451;48.638;10.624;2022-12-07T06:44:19;1.60;;;0.90;;
44722;SDS011;30451;48.638;10.624;2022-12-07T06:46:45;2.05;;;0.85;;
44722;SDS011;30451;48.638;10.624;2022-12-07T06:49:11;1.40;;;0.90;;
44722;SDS011;30451;48.638;10.624;2022-12-07T06:51:37;1.45;;;1.00;;
44722;SDS011;30451;48.638;10.624;2022-12-07T06:54:06;2.42;;;0.90;;
44722;SDS011;30451;48.638;10.624;2022-12-07T06:56:33;1.90;;;1.00;;
44722;SDS011;30451;48.638;10.624;2022-12-07T06:58:59;1.77;;;1.02;;
44722;SDS011;30451;48.638;10.624;2022-12-07T07:01:24;2.70;;;0.93;;
44722;SDS011;30451;48.638;10.624;2022-12-07T07:03:50;2.47;;;1.23;;
44722;SDS011;30451;48.638;10.624;2022-12-07T07:06:15;1.38;;;1.00;;
44722;SDS011;30451;48.638;10.624;2022-12-07T07:08:41;1.50;;;1.02;;
44722;SDS011;30451;48.638;10.624;2022-12-07T07:11:07;2.45;;;1.38;;
44722;SDS011;30451;48.638;10.624;2022-12-07T07:13:33;1.75;;;1.10;;
44722;SDS011;30451;48.638;10.624;2022-12-07T07:15:59;1.92;;;1.00;;
44722;SDS011;30451;48.638;10.624;2022-12-07T07:18:25;2.00;;;1.20;;
44722;SDS011;30451;48.638;10.624;2022-12-07T07:20:51;2.75;;;1.00;;
44722;SDS011;30451;48.638;10.624;2022-12-07T07:23:17;2.10;;;0.90;;
44722;SDS011;30451;48.638;10.624;2022-12-07T07:25:44;1.10;;;0.90;;
44722;SDS011;30451;48.638;10.624;2022-12-07T07:28:10;2.20;;;1.13;;
44722;SDS011;30451;48.638;10.624;2022-12-07T07:30:39;2.08;;;1.20;;
44722;SDS011;30451;48.638;10.624;2022-12-07T07:33:05;2.55;;;1.00;;
44722;SDS011;30451;48.638;10.624;2022-12-07T07:35:32;2.17;;;1.08;;
44722;SDS011;30451;48.638;10.624;2022-12-07T07:37:58;1.73;;;0.90;;
44722;SDS011;30451;48.638;10.624;2022-12-07T07:40:25;1.83;;;1.15;;
44722;SDS011;30451;48.638;10.624;2022-12-07T07:42:51;2.22;;;1.25;;
44722;SDS011;30451;48.638;10.624;2022-12-07T07:45:18;2.13;;;1.20;;
44722;SDS011;30451;48.638;10.624;2022-12-07T07:47:46;1.75;;;1.10;;
44722;SDS011;30451;48.638;10.624;2022-12-07T07:50:12;1.95;;;1.10;;
44722;SDS011;30451;48.638;10.624;2022-12-07T07:52:37;1.63;;;1.00;;
44722;SDS011;30451;48.638;10.624;2022-12-07T07:55:03;2.25;;;1.30;;
44722;SDS011;30451;48.638;10.624;2022-12-07T07:57:29;1.73;;;1.05;;
44722;SDS011;30451;48.638;10.624;2022-12-07T07:59:55;1.67;;;0.95;;
44722;SDS011;30451;48.638;10.624;2022-12-07T08:02:21;1.80;;;1.10;;
44722;SDS011;30451;48.638;10.624;2022-12-07T08:04:47;2.92;;;1.42;;
44722;SDS011;30451;48.638;10.624;2022-12-07T08:07:13;1.83;;;1.00;;
44722;SDS011;30451;48.638;10.624;2022-12-07T08:09:39;1.77;;;1.10;;
44722;SDS011;30451;48.638;10.624;2022-12-07T08:12:05;2.70;;;1.20;;
44722;SDS011;30451;48.638;10.624;2022-12-07T08:14:31;2.30;;;1.20;;
44722;SDS011;30451;48.638;10.624;2022-12-07T08:16:57;2.00;;;1.10;;
44722;SDS011;30451;48.638;10.624;2022-12-07T08:19:23;1.70;;;0.93;;
44722;SDS011;30451;48.638;10.624;2022-12-07T08:21:49;2.25;;;1.42;;
44722;SDS011;30451;48.638;10.624;2022-12-07T08:24:15;2.03;;;1.20;;
44722;SDS011;30451;48.638;10.624;2022-12-07T08:26:40;2.20;;;1.15;;
44722;SDS011;30451;48.638;10.624;2022-12-07T08:29:06;2.55;;;1.10;;
44722;SDS011;30451;48.638;10.624;2022-12-07T08:31:32;2.30;;;1.30;;
44722;SDS011;30451;48.638;10.624;2022-12-07T08:33:58;2.25;;;1.20;;
44722;SDS011;30451;48.638;10.624;2022-12-07T08:36:24;2.60;;;1.30;;
44722;SDS011;30451;48.638;10.624;2022-12-07T08:38:50;2.33;;;1.15;;
44722;SDS011;30451;48.638;10.624;2022-12-07T08:41:15;1.88;;;1.15;;
44722;SDS011;30451;48.638;10.624;2022-12-07T08:43:41;1.58;;;1.00;;
44722;SDS011;30451;48.638;10.624;2022-12-07T08:51:39;1.73;;;1.00;;
44722;SDS011;30451;48.638;10.624;2022-12-07T08:54:06;2.28;;;1.10;;
44722;SDS011;30451;48.638;10.624;2022-12-07T08:56:35;1.85;;;1.23;;
44722;SDS011;30451;48.638;10.624;2022-12-07T08:59:02;1.60;;;1.00;;
44722;SDS011;30451;48.638;10.624;2022-12-07T09:01:28;2.17;;;1.30;;
44722;SDS011;30451;48.638;10.624;2022-12-07T09:03:54;1.65;;;1.10;;
44722;SDS011;30451;48.638;10.624;2022-12-07T09:06:20;2.03;;;1.00;;
44722;SDS011;30451;48.638;10.624;2022-12-07T09:08:48;2.00;;;1.10;;
44722;SDS011;30451;48.638;10.624;2022-12-07T09:11:18;1.52;;;1.00;;
44722;SDS011;30451;48.638;10.624;2022-12-07T09:13:44;3.05;;;1.10;;
44722;SDS011;30451;48.638;10.624;2022-12-07T09:16:09;2.30;;;1.23;;
44722;SDS011;30451;48.638;10.624;2022-12-07T09:18:35;2.60;;;0.93;;
44722;SDS011;30451;48.638;10.624;2022-12-07T09:21:01;1.65;;;1.00;;
44722;SDS011;30451;48.638;10.624;2022-12-07T09:23:27;1.77;;;1.10;;
44722;SDS011;30451;48.638;10.624;2022-12-07T09:25:52;2.88;;;1.08;;
44722;SDS011;30451;48.638;10.624;2022-12-07T09:28:18;1.60;;;0.93;;
44722;SDS011;30451;48.638;10.624;2022-12-07T09:30:47;1.80;;;1.10;;
44722;SDS011;30451;48.638;10.624;2022-12-07T09:33:14;2.08;;;1.10;;
44722;SDS011;30451;48.638;10.624;2022-12-07T09:35:47;1.63;;;0.98;;
44722;SDS011;30451;48.638;10.624;2022-12-07T09:38:13;2.03;;;1.20;;
44722;SDS011;30451;48.638;10.624;2022-12-07T09:40:40;1.70;;;1.10;;
44722;SDS011;30451;48.638;10.624;2022-12-07T09:43:29;2.42;;;1.15;;
44722;SDS011;30451;48.638;10.624;2022-12-07T09:45:54;2.25;;;1.20;;
44722;SDS011;30451;48.638;10.624;2022-12-07T09:48:22;1.80;;;1.00;;
44722;SDS011;30451;48.638;10.624;2022-12-07T09:51:02;1.70;;;1.08;;
44722;SDS011;30451;48.638;10.624;2022-12-07T09:53:37;1.77;;;1.00;;
44722;SDS011;30451;48.638;10.624;2022-12-07T09:56:03;2.25;;;1.30;;
44722;SDS011;30451;48.638;10.624;2022-12-07T09:58:30;1.77;;;1.08;;
44722;SDS011;30451;48.638;10.624;2022-12-07T10:01:17;2.05;;;1.10;;
44722;SDS011;30451;48.638;10.624;2022-12-07T10:03:54;1.50;;;1.00;;
44722;SDS011;30451;48.638;10.624;2022-12-07T10:06:25;1.48;;;1.00;;
44722;SDS011;30451;48.638;10.624;2022-12-07T10:08:51;2.13;;;1.20;;
44722;SDS011;30451;48.638;10.624;2022-12-07T10:11:16;1.83;;;1.10;;
44722;SDS011;30451;48.638;10.624;2022-12-07T10:13:46;1.90;;;1.10;;
44722;SDS011;30451;48.638;10.624;2022-12-07T10:18:53;1.35;;;0.90;;
44722;SDS011;30451;48.638;10.624;2022-12-07T10:21:20;1.98;;;1.23;;
44722;SDS011;30451;48.638;10.624;2022-12-07T10:26:38;1.55;;;1.00;;
44722;SDS011;30451;48.638;10.624;2022-12-07T10:31:40;1.83;;;1.00;;
44722;SDS011;30451;48.638;10.624;2022-12-07T10:34:15;1.90;;;1.20;;
44722;SDS011;30451;48.638;10.624;2022-12-07T10:36:52;1.95;;;1.17;;
44722;SDS011;30451;48.638;10.624;2022-12-07T10:39:22;1.80;;;1.00;;
44722;SDS011;30451;48.638;10.624;2022-12-07T10:44:28;2.50;;;1.08;;
44722;SDS011;30451;48.638;10.624;2022-12-07T10:55:42;1.65;;;1.20;;
44722;SDS011;30451;48.638;10.624;2022-12-07T11:01:38;1.88;;;1.10;;
44722;SDS011;30451;48.638;10.624;2022-12-07T11:15:53;1.63;;;1.20;;
44722;SDS011;30451;48.638;10.624;2022-12-07T11:37:31;1.77;;;1.13;;
44722;SDS011;30451;48.638;10.624;2022-12-07T11:40:00;1.90;;;1.02;;
44722;SDS011;30451;48.638;10.624;2022-12-07T11:42:31;1.65;;;1.05;;
44722;SDS011;30451;48.638;10.624;2022-12-07T11:45:21;2.90;;;1.10;;
44722;SDS011;30451;48.638;10.624;2022-12-07T11:52:58;1.30;;;1.00;;
44722;SDS011;30451;48.638;10.624;2022-12-07T11:55:41;2.05;;;0.90;;
44722;SDS011;30451;48.638;10.624;2022-12-07T11:58:39;1.80;;;1.13;;
44722;SDS011;30451;48.638;10.624;2022-12-07T12:06:57;2.08;;;0.90;;
44722;SDS011;30451;48.638;10.624;2022-12-07T12:09:26;2.15;;;1.20;;
44722;SDS011;30451;48.638;10.624;2022-12-07T12:20:53;1.33;;;0.90;;
44722;SDS011;30451;48.638;10.624;2022-12-07T12:26:01;1.95;;;1.10;;
44722;SDS011;30451;48.638;10.624;2022-12-07T12:28:39;1.30;;;1.05;;
44722;SDS011;30451;48.638;10.624;2022-12-07T12:31:13;2.03;;;1.00;;
44722;SDS011;30451;48.638;10.624;2022-12-07T12:33:42;2.25;;;1.20;;
44722;SDS011;30451;48.638;10.624;2022-12-07T12:38:50;2.47;;;1.00;;
44722;SDS011;30451;48.638;10.624;2022-12-07T12:44:03;1.93;;;1.13;;
44722;SDS011;30451;48.638;10.624;2022-12-07T12:47:01;2.40;;;1.10;;
44722;SDS011;30451;48.638;10.624;2022-12-07T12:49:40;2.40;;;1.13;;
44722;SDS011;30451;48.638;10.624;2022-12-07T12:54:41;1.83;;;1.15;;
44722;SDS011;30451;48.638;10.624;2022-12-07T12:57:28;2.72;;;1.40;;
44722;SDS011;30451;48.638;10.624;2022-12-07T12:59:59;1.90;;;1.10;;
44722;SDS011;30451;48.638;10.624;2022-12-07T13:02:29;3.10;;;1.40;;
44722;SDS011;30451;48.638;10.624;2022-12-07T13:20:50;3.00;;;1.30;;
44722;SDS011;30451;48.638;10.624;2022-12-07T13:26:09;4.45;;;1.73;;
44722;SDS011;30451;48.638;10.624;2022-12-07T13:28:39;3.90;;;1.60;;
44722;SDS011;30451;48.638;10.624;2022-12-07T13:31:23;4.07;;;1.65;;
44722;SDS011;30451;48.638;10.624;2022-12-07T13:34:01;3.50;;;1.48;;
44722;SDS011;30451;48.638;10.624;2022-12-07T13:36:32;2.85;;;1.45;;
44722;SDS011;30451;48.638;10.624;2022-12-07T13:39:16;3.05;;;1.60;;
44722;SDS011;30451;48.638;10.624;2022-12-07T13:41:46;2.70;;;1.23;;
44722;SDS011;30451;48.638;10.624;2022-12-07T13:44:16;2.72;;;1.58;;
44722;SDS011;30451;48.638;10.624;2022-12-07T13:46:48;3.50;;;1.60;;
44722;SDS011;30451;48.638;10.624;2022-12-07T13:49:25;3.35;;;1.58;;
44722;SDS011;30451;48.638;10.624;2022-12-07T13:51:52;5.32;;;1.75;;
44722;SDS011;30451;48.638;10.624;2022-12-07T13:54:19;3.25;;;1.50;;
44722;SDS011;30451;48.638;10.624;2022-12-07T13:56:47;4.00;;;1.75;;
44722;SDS011;30451;48.638;10.624;2022-12-07T13:59:21;3.88;;;2.38;;
44722;SDS011;30451;48.638;10.624;2022-12-07T14:01:49;6.22;;;3.78;;
44722;SDS011;30451;48.638;10.624;2022-12-07T14:04:16;5.70;;;4.40;;
44722;SDS011;30451;48.638;10.624;2022-12-07T14:06:57;7.18;;;5.40;;
44722;SDS011;30451;48.638;10.624;2022-12-07T14:09:24;11.85;;;8.55;;
44722;SDS011;30451;48.638;10.624;2022-12-07T14:11:51;11.57;;;10.38;;
44722;SDS011;30451;48.638;10.624;2022-12-07T14:14:29;14.18;;;11.60;;
44722;SDS011;30451;48.638;10.624;2022-12-07T14:16:57;15.65;;;14.05;;
44722;SDS011;30451;48.638;10.624;2022-12-07T14:19:44;17.48;;;15.68;;
44722;SDS011;30451;48.638;10.624;2022-12-07T14:24:58;20.25;;;18.08;;
44722;SDS011;30451;48.638;10.624;2022-12-07T14:27:29;21.65;;;19.50;;
44722;SDS011;30451;48.638;10.624;2022-12-07T14:29:59;24.20;;;21.75;;
44722;SDS011;30451;48.638;10.624;2022-12-07T14:32:27;25.00;;;22.30;;
44722;SDS011;30451;48.638;10.624;2022-12-07T14:34:58;23.88;;;21.48;;
44722;SDS011;30451;48.638;10.624;2022-12-07T14:37:25;25.73;;;23.08;;
44722;SDS011;30451;48.638;10.624;2022-12-07T14:39:51;25.33;;;22.75;;
44722;SDS011;30451;48.638;10.624;2022-12-07T14:42:17;26.15;;;23.45;;
44722;SDS011;30451;48.638;10.624;2022-12-07T14:44:43;27.23;;;24.52;;
44722;SDS011;30451;48.638;10.624;2022-12-07T14:47:12;26.50;;;23.90;;
44722;SDS011;30451;48.638;10.624;2022-12-07T14:49:38;26.67;;;24.08;;
44722;SDS011;30451;48.638;10.624;2022-12-07T14:52:04;26.40;;;23.73;;
44722;SDS011;30451;48.638;10.624;2022-12-07T14:54:31;26.42;;;23.90;;
44722;SDS011;30451;48.638;10.624;2022-12-07T14:56:57;26.88;;;24.13;;
44722;SDS011;30451;48.638;10.624;2022-12-07T14:59:23;26.42;;;23.70;;
44722;SDS011;30451;48.638;10.624;2022-12-07T15:01:49;27.85;;;25.05;;
44722;SDS011;30451;48.638;10.624;2022-12-07T15:04:15;28.33;;;25.55;;
44722;SDS011;30451;48.638;10.624;2022-12-07T15:06:41;27.33;;;24.50;;
44722;SDS011;30451;48.638;10.624;2022-12-07T15:09:09;27.90;;;25.00;;
44722;SDS011;30451;48.638;10.624;2022-12-07T15:11:36;27.60;;;24.80;;
44722;SDS011;30451;48.638;10.624;2022-12-07T15:14:01;28.48;;;25.63;;
44722;SDS011;30451;48.638;10.624;2022-12-07T15:16:33;27.95;;;25.15;;
44722;SDS011;30451;48.638;10.624;2022-12-07T15:19:25;28.38;;;25.58;;
44722;SDS011;30451;48.638;10.624;2022-12-07T15:21:52;28.75;;;25.90;;
44722;SDS011;30451;48.638;10.624;2022-12-07T15:24:18;29.73;;;26.67;;
44722;SDS011;30451;48.638;10.624;2022-12-07T15:26:45;29.17;;;26.17;;
44722;SDS011;30451;48.638;10.624;2022-12-07T15:29:11;29.15;;;26.35;;
44722;SDS011;30451;48.638;10.624;2022-12-07T15:31:37;28.65;;;25.80;;
44722;SDS011;30451;48.638;10.624;2022-12-07T15:34:03;27.73;;;25.02;;
44722;SDS011;30451;48.638;10.624;2022-12-07T15:36:30;29.83;;;26.88;;
44722;SDS011;30451;48.638;10.624;2022-12-07T15:38:56;29.02;;;26.20;;
44722;SDS011;30451;48.638;10.624;2022-12-07T15:41:22;29.40;;;26.50;;
44722;SDS011;30451;48.638;10.624;2022-12-07T15:43:48;27.35;;;24.65;;
44722;SDS011;30451;48.638;10.624;2022-12-07T15:46:34;28.25;;;25.35;;
44722;SDS011;30451;48.638;10.624;2022-12-07T15:49:02;28.83;;;25.73;;
44722;SDS011;30451;48.638;10.624;2022-12-07T15:51:29;29.50;;;26.45;;
44722;SDS011;30451;48.638;10.624;2022-12-07T15:53:54;28.00;;;25.02;;
44722;SDS011;30451;48.638;10.624;2022-12-07T15:56:22;28.88;;;25.83;;
44722;SDS011;30451;48.638;10.624;2022-12-07T15:58:48;28.10;;;25.25;;
44722;SDS011;30451;48.638;10.624;2022-12-07T16:01:14;28.50;;;25.48;;
44722;SDS011;30451;48.638;10.624;2022-12-07T16:03:41;28.02;;;24.98;;
44722;SDS011;30451;48.638;10.624;2022-12-07T16:06:07;28.52;;;24.63;;
44722;SDS011;30451;48.638;10.624;2022-12-07T16:08:33;28.45;;;24.90;;
44722;SDS011;30451;48.638;10.624;2022-12-07T16:10:59;29.40;;;25.23;;
44722;SDS011;30451;48.638;10.624;2022-12-07T16:13:29;28.25;;;25.30;;
44722;SDS011;30451;48.638;10.624;2022-12-07T16:15:54;27.23;;;24.05;;
44722;SDS011;30451;48.638;10.624;2022-12-07T16:18:20;27.90;;;25.02;;
44722;SDS011;30451;48.638;10.624;2022-12-07T16:20:47;29.42;;;25.05;;
44722;SDS011;30451;48.638;10.624;2022-12-07T16:23:14;26.63;;;23.98;;
44722;SDS011;30451;48.638;10.624;2022-12-07T16:25:40;28.35;;;24.30;;
44722;SDS011;30451;48.638;10.624;2022-12-07T16:28:06;26.50;;;23.70;;
44722;SDS011;30451;48.638;10.624;2022-12-07T16:30:32;26.13;;;23.35;;
44722;SDS011;30451;48.638;10.624;2022-12-07T16:32:59;26.77;;;23.98;;
44722;SDS011;30451;48.638;10.624;2022-12-07T16:35:24;26.40;;;23.60;;
44722;SDS011;30451;48.638;10.624;2022-12-07T16:37:50;25.95;;;23.35;;
44722;SDS011;30451;48.638;10.624;2022-12-07T16:40:15;27.65;;;23.70;;
44722;SDS011;30451;48.638;10.624;2022-12-07T16:42:41;24.80;;;22.25;;
44722;SDS011;30451;48.638;10.624;2022-12-07T16:45:07;24.60;;;22.15;;
44722;SDS011;30451;48.638;10.624;2022-12-07T16:47:33;25.83;;;23.02;;
44722;SDS011;30451;48.638;10.624;2022-12-07T16:50:01;25.20;;;22.60;;
44722;SDS011;30451;48.638;10.624;2022-12-07T16:52:27;25.83;;;23.08;;
44722;SDS011;30451;48.638;10.624;2022-12-07T16:54:53;26.33;;;23.52;;
44722;SDS011;30451;48.638;10.624;2022-12-07T16:57:18;30.85;;;24.70;;
44722;SDS011;30451;48.638;10.624;2022-12-07T16:59:44;26.70;;;23.80;;
44722;SDS011;30451;48.638;10.624;2022-12-07T17:02:11;27.98;;;25.25;;
44722;SDS011;30451;48.638;10.624;2022-12-07T17:04:36;27.45;;;24.73;;
44722;SDS011;30451;48.638;10.624;2022-12-07T17:07:04;27.20;;;24.45;;
44722;SDS011;30451;48.638;10.624;2022-12-07T17:09:30;26.48;;;23.55;;
44722;SDS011;30451;48.638;10.624;2022-12-07T17:11:56;26.35;;;23.65;;